sensor_id;sensor_type;location;lat;lon;timestamp;P1;durP1;ratioP1;P2;durP2;ratioP2
8102;SDS011;4094;49.948;11.574;2022-08-05T00:01:32;3.40;;;3.10;;
8102;SDS011;4094;49.948;11.574;2022-08-05T00:04:15;3.33;;;3.03;;
8102;SDS011;4094;49.948;11.574;2022-08-05T00:06:44;3.30;;;3.00;;
8102;SDS011;4094;49.948;11.574;2022-08-05T00:09:18;3.40;;;3.10;;
8102;SDS011;4094;49.948;11.574;2022-08-05T00:11:48;3.47;;;2.73;;
8102;SDS011;4094;49.948;11.574;2022-08-05T00:14:25;3.50;;;3.20;;
8102;SDS011;4094;49.948;11.574;2022-08-05T00:16:59;3.40;;;3.10;;
8102;SDS011;4094;49.948;11.574;2022-08-05T00:19:29;3.40;;;3.00;;
8102;SDS011;4094;49.948;11.574;2022-08-05T00:22:06;3.27;;;2.80;;
8102;SDS011;4094;49.948;11.574;2022-08-05T00:24:38;3.23;;;2.70;;
8102;SDS011;4094;49.948;11.574;2022-08-05T00:27:09;3.17;;;2.87;;
8102;SDS011;4094;49.948;11.574;2022-08-05T00:29:58;3.50;;;3.20;;
8102;SDS011;4094;49.948;11.574;2022-08-05T00:32:31;3.40;;;3.03;;
8102;SDS011;4094;49.948;11.574;2022-08-05T00:35:02;5.17;;;2.90;;
8102;SDS011;4094;49.948;11.574;2022-08-05T00:37:33;3.10;;;2.90;;
8102;SDS011;4094;49.948;11.574;2022-08-05T00:40:20;4.10;;;3.33;;
8102;SDS011;4094;49.948;11.574;2022-08-05T00:42:55;3.27;;;2.93;;
8102;SDS011;4094;49.948;11.574;2022-08-05T00:45:27;3.00;;;2.70;;
8102;SDS011;4094;49.948;11.574;2022-08-05T00:48:12;3.50;;;3.20;;
8102;SDS011;4094;49.948;11.574;2022-08-05T00:50:43;3.03;;;2.83;;
8102;SDS011;4094;49.948;11.574;2022-08-05T00:53:14;3.23;;;2.90;;
8102;SDS011;4094;49.948;11.574;2022-08-05T00:56:04;3.20;;;3.00;;
8102;SDS011;4094;49.948;11.574;2022-08-05T00:58:34;4.50;;;3.23;;
8102;SDS011;4094;49.948;11.574;2022-08-05T01:01:04;3.30;;;3.10;;
8102;SDS011;4094;49.948;11.574;2022-08-05T01:03:37;3.60;;;3.30;;
8102;SDS011;4094;49.948;11.574;2022-08-05T01:06:07;3.47;;;3.23;;
8102;SDS011;4094;49.948;11.574;2022-08-05T01:08:40;3.57;;;3.20;;
8102;SDS011;4094;49.948;11.574;2022-08-05T01:11:11;3.33;;;3.00;;
8102;SDS011;4094;49.948;11.574;2022-08-05T01:13:55;3.63;;;3.30;;
8102;SDS011;4094;49.948;11.574;2022-08-05T01:16:29;3.33;;;3.13;;
8102;SDS011;4094;49.948;11.574;2022-08-05T01:19:11;4.10;;;3.13;;
8102;SDS011;4094;49.948;11.574;2022-08-05T01:22:17;3.50;;;3.20;;
8102;SDS011;4094;49.948;11.574;2022-08-05T01:25:11;3.90;;;3.60;;
8102;SDS011;4094;49.948;11.574;2022-08-05T01:28:16;3.93;;;3.50;;
8102;SDS011;4094;49.948;11.574;2022-08-05T01:30:51;4.87;;;3.07;;
8102;SDS011;4094;49.948;11.574;2022-08-05T01:33:25;6.23;;;3.70;;
8102;SDS011;4094;49.948;11.574;2022-08-05T01:36:05;4.23;;;3.30;;
8102;SDS011;4094;49.948;11.574;2022-08-05T01:38:42;3.47;;;3.27;;
8102;SDS011;4094;49.948;11.574;2022-08-05T01:41:16;4.53;;;3.73;;
8102;SDS011;4094;49.948;11.574;2022-08-05T01:43:53;3.90;;;3.57;;
8102;SDS011;4094;49.948;11.574;2022-08-05T01:46:23;5.50;;;3.50;;
8102;SDS011;4094;49.948;11.574;2022-08-05T01:49:14;3.87;;;3.40;;
8102;SDS011;4094;49.948;11.574;2022-08-05T01:51:51;3.70;;;3.40;;
8102;SDS011;4094;49.948;11.574;2022-08-05T01:54:25;4.40;;;3.53;;
8102;SDS011;4094;49.948;11.574;2022-08-05T01:56:59;3.70;;;3.40;;
8102;SDS011;4094;49.948;11.574;2022-08-05T01:59:51;4.10;;;3.70;;
8102;SDS011;4094;49.948;11.574;2022-08-05T02:02:26;4.30;;;3.90;;
8102;SDS011;4094;49.948;11.574;2022-08-05T02:04:58;4.00;;;3.70;;
8102;SDS011;4094;49.948;11.574;2022-08-05T02:07:38;5.43;;;3.73;;
8102;SDS011;4094;49.948;11.574;2022-08-05T02:10:24;4.50;;;3.70;;
8102;SDS011;4094;49.948;11.574;2022-08-05T02:12:57;5.77;;;3.37;;
8102;SDS011;4094;49.948;11.574;2022-08-05T02:15:45;4.43;;;3.33;;
8102;SDS011;4094;49.948;11.574;2022-08-05T02:18:19;3.53;;;3.23;;
8102;SDS011;4094;49.948;11.574;2022-08-05T02:21:03;3.70;;;3.40;;
8102;SDS011;4094;49.948;11.574;2022-08-05T02:23:42;5.20;;;3.90;;
8102;SDS011;4094;49.948;11.574;2022-08-05T02:26:15;3.50;;;3.30;;
8102;SDS011;4094;49.948;11.574;2022-08-05T02:28:53;3.50;;;3.20;;
8102;SDS011;4094;49.948;11.574;2022-08-05T02:31:27;5.57;;;3.37;;
8102;SDS011;4094;49.948;11.574;2022-08-05T02:34:03;3.47;;;3.17;;
8102;SDS011;4094;49.948;11.574;2022-08-05T02:36:38;3.37;;;3.07;;
8102;SDS011;4094;49.948;11.574;2022-08-05T02:39:10;3.17;;;2.97;;
8102;SDS011;4094;49.948;11.574;2022-08-05T02:41:47;3.83;;;3.20;;
8102;SDS011;4094;49.948;11.574;2022-08-05T02:44:28;3.63;;;3.33;;
8102;SDS011;4094;49.948;11.574;2022-08-05T02:47:02;5.30;;;3.33;;
8102;SDS011;4094;49.948;11.574;2022-08-05T02:49:34;3.40;;;3.10;;
8102;SDS011;4094;49.948;11.574;2022-08-05T02:52:08;3.40;;;3.10;;
8102;SDS011;4094;49.948;11.574;2022-08-05T02:54:52;3.60;;;3.30;;
8102;SDS011;4094;49.948;11.574;2022-08-05T02:57:23;3.70;;;3.40;;
8102;SDS011;4094;49.948;11.574;2022-08-05T03:00:12;3.50;;;3.20;;
8102;SDS011;4094;49.948;11.574;2022-08-05T03:02:44;3.07;;;2.87;;
8102;SDS011;4094;49.948;11.574;2022-08-05T03:05:16;3.17;;;2.97;;
8102;SDS011;4094;49.948;11.574;2022-08-05T03:08:07;3.13;;;2.90;;
8102;SDS011;4094;49.948;11.574;2022-08-05T03:10:41;3.63;;;3.33;;
8102;SDS011;4094;49.948;11.574;2022-08-05T03:13:30;3.30;;;3.10;;
8102;SDS011;4094;49.948;11.574;2022-08-05T03:16:19;3.80;;;3.40;;
8102;SDS011;4094;49.948;11.574;2022-08-05T03:18:50;3.60;;;3.30;;
8102;SDS011;4094;49.948;11.574;2022-08-05T03:21:19;3.73;;;3.23;;
8102;SDS011;4094;49.948;11.574;2022-08-05T03:23:55;4.47;;;3.10;;
8102;SDS011;4094;49.948;11.574;2022-08-05T03:26:25;3.63;;;3.33;;
8102;SDS011;4094;49.948;11.574;2022-08-05T03:28:58;4.50;;;3.63;;
8102;SDS011;4094;49.948;11.574;2022-08-05T03:31:30;4.27;;;3.60;;
8102;SDS011;4094;49.948;11.574;2022-08-05T03:34:21;4.13;;;3.83;;
8102;SDS011;4094;49.948;11.574;2022-08-05T03:36:50;3.87;;;3.57;;
8102;SDS011;4094;49.948;11.574;2022-08-05T03:39:20;3.53;;;3.23;;
8102;SDS011;4094;49.948;11.574;2022-08-05T03:41:53;3.87;;;3.47;;
8102;SDS011;4094;49.948;11.574;2022-08-05T03:44:22;3.63;;;3.33;;
8102;SDS011;4094;49.948;11.574;2022-08-05T03:46:55;3.20;;;3.00;;
8102;SDS011;4094;49.948;11.574;2022-08-05T03:49:25;3.50;;;3.20;;
8102;SDS011;4094;49.948;11.574;2022-08-05T03:52:17;3.73;;;3.43;;
8102;SDS011;4094;49.948;11.574;2022-08-05T03:55:13;5.53;;;3.40;;
8102;SDS011;4094;49.948;11.574;2022-08-05T03:58:07;5.20;;;3.60;;
8102;SDS011;4094;49.948;11.574;2022-08-05T04:00:38;4.13;;;3.80;;
8102;SDS011;4094;49.948;11.574;2022-08-05T04:03:12;4.53;;;3.50;;
8102;SDS011;4094;49.948;11.574;2022-08-05T04:05:56;4.93;;;3.20;;
8102;SDS011;4094;49.948;11.574;2022-08-05T04:08:26;5.03;;;3.40;;
8102;SDS011;4094;49.948;11.574;2022-08-05T04:11:03;3.80;;;3.43;;
8102;SDS011;4094;49.948;11.574;2022-08-05T04:13:38;3.70;;;3.40;;
8102;SDS011;4094;49.948;11.574;2022-08-05T04:16:17;3.70;;;3.40;;
8102;SDS011;4094;49.948;11.574;2022-08-05T04:18:51;3.93;;;3.57;;
8102;SDS011;4094;49.948;11.574;2022-08-05T04:21:25;3.30;;;3.00;;
8102;SDS011;4094;49.948;11.574;2022-08-05T04:24:15;4.10;;;3.70;;
8102;SDS011;4094;49.948;11.574;2022-08-05T04:26:49;4.47;;;3.40;;
8102;SDS011;4094;49.948;11.574;2022-08-05T04:29:18;3.27;;;2.97;;
8102;SDS011;4094;49.948;11.574;2022-08-05T04:31:47;3.07;;;2.87;;
8102;SDS011;4094;49.948;11.574;2022-08-05T04:34:16;3.23;;;3.03;;
8102;SDS011;4094;49.948;11.574;2022-08-05T04:37:02;3.20;;;2.90;;
8102;SDS011;4094;49.948;11.574;2022-08-05T04:39:31;3.23;;;3.00;;
8102;SDS011;4094;49.948;11.574;2022-08-05T04:42:02;3.43;;;3.13;;
8102;SDS011;4094;49.948;11.574;2022-08-05T04:44:31;3.53;;;3.07;;
8102;SDS011;4094;49.948;11.574;2022-08-05T04:47:00;3.47;;;3.20;;
8102;SDS011;4094;49.948;11.574;2022-08-05T04:49:36;3.87;;;3.50;;
8102;SDS011;4094;49.948;11.574;2022-08-05T04:52:27;3.50;;;3.20;;
8102;SDS011;4094;49.948;11.574;2022-08-05T04:55:01;3.73;;;3.40;;
8102;SDS011;4094;49.948;11.574;2022-08-05T04:57:42;3.83;;;3.20;;
8102;SDS011;4094;49.948;11.574;2022-08-05T05:00:14;3.37;;;3.07;;
8102;SDS011;4094;49.948;11.574;2022-08-05T05:02:44;3.13;;;2.87;;
8102;SDS011;4094;49.948;11.574;2022-08-05T05:05:16;4.13;;;3.10;;
8102;SDS011;4094;49.948;11.574;2022-08-05T05:07:59;3.07;;;2.87;;
8102;SDS011;4094;49.948;11.574;2022-08-05T05:10:30;4.37;;;3.23;;
8102;SDS011;4094;49.948;11.574;2022-08-05T05:13:01;2.97;;;2.77;;
8102;SDS011;4094;49.948;11.574;2022-08-05T05:15:31;3.30;;;3.03;;
8102;SDS011;4094;49.948;11.574;2022-08-05T05:18:21;6.23;;;3.07;;
8102;SDS011;4094;49.948;11.574;2022-08-05T05:21:00;4.03;;;3.20;;
8102;SDS011;4094;49.948;11.574;2022-08-05T05:23:33;3.90;;;3.50;;
8102;SDS011;4094;49.948;11.574;2022-08-05T05:26:22;3.47;;;3.17;;
8102;SDS011;4094;49.948;11.574;2022-08-05T05:28:59;4.57;;;3.57;;
8102;SDS011;4094;49.948;11.574;2022-08-05T05:31:41;3.50;;;3.20;;
8102;SDS011;4094;49.948;11.574;2022-08-05T05:34:13;4.67;;;3.20;;
8102;SDS011;4094;49.948;11.574;2022-08-05T05:36:50;3.83;;;3.53;;
8102;SDS011;4094;49.948;11.574;2022-08-05T05:39:21;5.67;;;3.43;;
8102;SDS011;4094;49.948;11.574;2022-08-05T05:41:50;4.10;;;3.70;;
8102;SDS011;4094;49.948;11.574;2022-08-05T05:44:21;5.30;;;3.83;;
8102;SDS011;4094;49.948;11.574;2022-08-05T05:47:03;4.90;;;3.70;;
8102;SDS011;4094;49.948;11.574;2022-08-05T05:49:47;3.47;;;3.17;;
8102;SDS011;4094;49.948;11.574;2022-08-05T05:52:24;6.27;;;3.37;;
8102;SDS011;4094;49.948;11.574;2022-08-05T05:55:06;4.73;;;3.30;;
8102;SDS011;4094;49.948;11.574;2022-08-05T05:57:40;3.27;;;3.07;;
8102;SDS011;4094;49.948;11.574;2022-08-05T06:00:19;6.77;;;3.10;;
8102;SDS011;4094;49.948;11.574;2022-08-05T06:02:59;3.33;;;3.03;;
8102;SDS011;4094;49.948;11.574;2022-08-05T06:05:28;3.53;;;3.23;;
8102;SDS011;4094;49.948;11.574;2022-08-05T06:07:59;5.47;;;3.27;;
8102;SDS011;4094;49.948;11.574;2022-08-05T06:10:31;4.73;;;2.83;;
8102;SDS011;4094;49.948;11.574;2022-08-05T06:13:10;4.27;;;3.20;;
8102;SDS011;4094;49.948;11.574;2022-08-05T06:15:39;3.23;;;2.93;;
8102;SDS011;4094;49.948;11.574;2022-08-05T06:18:28;3.30;;;3.10;;
8102;SDS011;4094;49.948;11.574;2022-08-05T06:21:02;2.73;;;2.50;;
8102;SDS011;4094;49.948;11.574;2022-08-05T06:23:43;3.07;;;2.77;;
8102;SDS011;4094;49.948;11.574;2022-08-05T06:26:17;3.20;;;2.90;;
8102;SDS011;4094;49.948;11.574;2022-08-05T06:28:50;5.07;;;2.77;;
8102;SDS011;4094;49.948;11.574;2022-08-05T06:31:19;2.70;;;2.50;;
8102;SDS011;4094;49.948;11.574;2022-08-05T06:33:57;3.47;;;2.80;;
8102;SDS011;4094;49.948;11.574;2022-08-05T06:36:35;2.80;;;2.60;;
8102;SDS011;4094;49.948;11.574;2022-08-05T06:39:24;3.47;;;2.90;;
8102;SDS011;4094;49.948;11.574;2022-08-05T06:41:56;3.73;;;2.90;;
8102;SDS011;4094;49.948;11.574;2022-08-05T06:44:30;3.17;;;2.80;;
8102;SDS011;4094;49.948;11.574;2022-08-05T06:47:00;3.37;;;3.07;;
8102;SDS011;4094;49.948;11.574;2022-08-05T06:49:29;2.83;;;2.63;;
8102;SDS011;4094;49.948;11.574;2022-08-05T06:52:18;2.90;;;2.70;;
8102;SDS011;4094;49.948;11.574;2022-08-05T06:55:07;3.07;;;2.77;;
8102;SDS011;4094;49.948;11.574;2022-08-05T06:57:38;4.40;;;2.70;;
8102;SDS011;4094;49.948;11.574;2022-08-05T07:00:27;3.80;;;2.60;;
8102;SDS011;4094;49.948;11.574;2022-08-05T07:02:57;2.93;;;2.73;;
8102;SDS011;4094;49.948;11.574;2022-08-05T07:05:27;4.10;;;2.73;;
8102;SDS011;4094;49.948;11.574;2022-08-05T07:08:04;3.47;;;3.17;;
8102;SDS011;4094;49.948;11.574;2022-08-05T07:10:37;4.10;;;3.00;;
8102;SDS011;4094;49.948;11.574;2022-08-05T07:13:22;4.20;;;2.90;;
8102;SDS011;4094;49.948;11.574;2022-08-05T07:16:26;3.00;;;2.80;;
8102;SDS011;4094;49.948;11.574;2022-08-05T07:19:33;2.90;;;2.70;;
8102;SDS011;4094;49.948;11.574;2022-08-05T07:22:22;3.60;;;2.70;;
8102;SDS011;4094;49.948;11.574;2022-08-05T07:24:56;2.70;;;2.50;;
8102;SDS011;4094;49.948;11.574;2022-08-05T07:27:46;4.77;;;2.87;;
8102;SDS011;4094;49.948;11.574;2022-08-05T07:30:31;3.23;;;3.00;;
8102;SDS011;4094;49.948;11.574;2022-08-05T07:33:06;3.50;;;2.93;;
8102;SDS011;4094;49.948;11.574;2022-08-05T07:35:43;3.03;;;2.70;;
8102;SDS011;4094;49.948;11.574;2022-08-05T07:38:33;3.57;;;2.33;;
8102;SDS011;4094;49.948;11.574;2022-08-05T07:41:11;3.30;;;2.57;;
8102;SDS011;4094;49.948;11.574;2022-08-05T07:44:04;4.00;;;2.60;;
8102;SDS011;4094;49.948;11.574;2022-08-05T07:46:47;2.50;;;2.30;;
8102;SDS011;4094;49.948;11.574;2022-08-05T07:49:17;3.10;;;2.40;;
8102;SDS011;4094;49.948;11.574;2022-08-05T07:51:47;7.03;;;2.70;;
8102;SDS011;4094;49.948;11.574;2022-08-05T07:54:21;3.90;;;2.33;;
8102;SDS011;4094;49.948;11.574;2022-08-05T07:56:58;2.93;;;2.30;;
8102;SDS011;4094;49.948;11.574;2022-08-05T07:59:47;3.77;;;2.40;;
8102;SDS011;4094;49.948;11.574;2022-08-05T08:02:23;2.53;;;2.33;;
8102;SDS011;4094;49.948;11.574;2022-08-05T08:04:57;2.63;;;2.20;;
8102;SDS011;4094;49.948;11.574;2022-08-05T08:07:27;2.60;;;2.23;;
8102;SDS011;4094;49.948;11.574;2022-08-05T08:10:16;2.20;;;1.93;;
8102;SDS011;4094;49.948;11.574;2022-08-05T08:12:47;2.93;;;2.37;;
8102;SDS011;4094;49.948;11.574;2022-08-05T08:15:16;4.23;;;2.27;;
8102;SDS011;4094;49.948;11.574;2022-08-05T08:18:06;3.57;;;2.00;;
8102;SDS011;4094;49.948;11.574;2022-08-05T08:20:40;3.67;;;1.77;;
8102;SDS011;4094;49.948;11.574;2022-08-05T08:23:30;2.67;;;1.60;;
8102;SDS011;4094;49.948;11.574;2022-08-05T08:26:19;2.90;;;1.80;;
8102;SDS011;4094;49.948;11.574;2022-08-05T08:28:57;2.07;;;1.80;;
8102;SDS011;4094;49.948;11.574;2022-08-05T08:31:47;4.30;;;1.87;;
8102;SDS011;4094;49.948;11.574;2022-08-05T08:34:18;1.93;;;1.60;;
8102;SDS011;4094;49.948;11.574;2022-08-05T08:36:59;3.60;;;1.70;;
8102;SDS011;4094;49.948;11.574;2022-08-05T08:39:32;3.07;;;1.83;;
8102;SDS011;4094;49.948;11.574;2022-08-05T08:42:04;7.20;;;1.73;;
8102;SDS011;4094;49.948;11.574;2022-08-05T08:44:56;2.90;;;1.90;;
8102;SDS011;4094;49.948;11.574;2022-08-05T08:47:48;4.80;;;1.83;;
8102;SDS011;4094;49.948;11.574;2022-08-05T08:50:41;4.13;;;1.60;;
8102;SDS011;4094;49.948;11.574;2022-08-05T08:53:34;3.37;;;1.87;;
8102;SDS011;4094;49.948;11.574;2022-08-05T08:56:10;3.13;;;1.40;;
8102;SDS011;4094;49.948;11.574;2022-08-05T08:58:40;3.70;;;1.87;;
8102;SDS011;4094;49.948;11.574;2022-08-05T09:01:14;1.57;;;1.47;;
8102;SDS011;4094;49.948;11.574;2022-08-05T09:03:46;2.37;;;1.40;;
8102;SDS011;4094;49.948;11.574;2022-08-05T09:06:25;3.83;;;1.70;;
8102;SDS011;4094;49.948;11.574;2022-08-05T09:08:57;4.43;;;1.90;;
8102;SDS011;4094;49.948;11.574;2022-08-05T09:11:28;2.33;;;1.40;;
8102;SDS011;4094;49.948;11.574;2022-08-05T09:14:18;2.23;;;1.33;;
8102;SDS011;4094;49.948;11.574;2022-08-05T09:17:09;2.90;;;1.43;;
8102;SDS011;4094;49.948;11.574;2022-08-05T09:20:03;2.87;;;1.77;;
8102;SDS011;4094;49.948;11.574;2022-08-05T09:25:36;1.77;;;1.27;;
8102;SDS011;4094;49.948;11.574;2022-08-05T09:28:27;3.97;;;1.93;;
8102;SDS011;4094;49.948;11.574;2022-08-05T09:31:00;3.07;;;1.60;;
8102;SDS011;4094;49.948;11.574;2022-08-05T09:33:52;4.43;;;1.67;;
8102;SDS011;4094;49.948;11.574;2022-08-05T09:36:22;2.00;;;1.50;;
8102;SDS011;4094;49.948;11.574;2022-08-05T09:39:04;2.87;;;1.67;;
8102;SDS011;4094;49.948;11.574;2022-08-05T09:41:55;2.73;;;1.60;;
8102;SDS011;4094;49.948;11.574;2022-08-05T09:44:31;1.60;;;1.50;;
8102;SDS011;4094;49.948;11.574;2022-08-05T09:47:06;3.00;;;1.53;;
8102;SDS011;4094;49.948;11.574;2022-08-05T09:49:44;2.40;;;1.70;;
8102;SDS011;4094;49.948;11.574;2022-08-05T09:52:28;2.20;;;1.63;;
8102;SDS011;4094;49.948;11.574;2022-08-05T09:55:04;1.60;;;1.50;;
8102;SDS011;4094;49.948;11.574;2022-08-05T09:57:54;4.23;;;1.80;;
8102;SDS011;4094;49.948;11.574;2022-08-05T10:00:26;1.73;;;1.43;;
8102;SDS011;4094;49.948;11.574;2022-08-05T10:02:57;2.87;;;1.53;;
8102;SDS011;4094;49.948;11.574;2022-08-05T10:05:35;2.97;;;1.60;;
8102;SDS011;4094;49.948;11.574;2022-08-05T10:08:05;2.10;;;1.40;;
8102;SDS011;4094;49.948;11.574;2022-08-05T10:10:56;1.90;;;1.37;;
8102;SDS011;4094;49.948;11.574;2022-08-05T10:13:27;1.97;;;1.40;;
8102;SDS011;4094;49.948;11.574;2022-08-05T10:16:29;2.13;;;1.33;;
8102;SDS011;4094;49.948;11.574;2022-08-05T10:19:00;2.13;;;1.47;;
8102;SDS011;4094;49.948;11.574;2022-08-05T10:21:36;2.63;;;1.50;;
8102;SDS011;4094;49.948;11.574;2022-08-05T10:24:07;1.40;;;1.27;;
8102;SDS011;4094;49.948;11.574;2022-08-05T10:26:41;1.83;;;1.20;;
8102;SDS011;4094;49.948;11.574;2022-08-05T10:29:19;2.23;;;1.00;;
8102;SDS011;4094;49.948;11.574;2022-08-05T10:32:09;2.03;;;1.40;;
8102;SDS011;4094;49.948;11.574;2022-08-05T10:34:58;1.37;;;1.10;;
8102;SDS011;4094;49.948;11.574;2022-08-05T10:37:28;2.10;;;1.20;;
8102;SDS011;4094;49.948;11.574;2022-08-05T10:40:15;1.63;;;1.30;;
8102;SDS011;4094;49.948;11.574;2022-08-05T10:42:57;1.43;;;1.10;;
8102;SDS011;4094;49.948;11.574;2022-08-05T10:45:32;1.63;;;1.20;;
8102;SDS011;4094;49.948;11.574;2022-08-05T10:51:18;1.20;;;1.03;;
8102;SDS011;4094;49.948;11.574;2022-08-05T10:53:57;1.20;;;1.10;;
8102;SDS011;4094;49.948;11.574;2022-08-05T10:56:47;2.73;;;1.17;;
8102;SDS011;4094;49.948;11.574;2022-08-05T10:59:24;1.50;;;1.00;;
8102;SDS011;4094;49.948;11.574;2022-08-05T11:02:16;1.97;;;0.83;;
8102;SDS011;4094;49.948;11.574;2022-08-05T11:05:05;1.47;;;1.20;;
8102;SDS011;4094;49.948;11.574;2022-08-05T11:07:54;2.37;;;1.00;;
8102;SDS011;4094;49.948;11.574;2022-08-05T11:10:43;1.90;;;1.10;;
8102;SDS011;4094;49.948;11.574;2022-08-05T11:16:26;0.87;;;0.83;;
8102;SDS011;4094;49.948;11.574;2022-08-05T11:22:39;1.80;;;1.00;;
8102;SDS011;4094;49.948;11.574;2022-08-05T11:25:27;0.93;;;0.80;;
8102;SDS011;4094;49.948;11.574;2022-08-05T11:28:39;0.97;;;0.70;;
8102;SDS011;4094;49.948;11.574;2022-08-05T11:31:24;2.90;;;1.00;;
8102;SDS011;4094;49.948;11.574;2022-08-05T11:34:20;1.10;;;0.80;;
8102;SDS011;4094;49.948;11.574;2022-08-05T11:37:04;0.83;;;0.80;;
8102;SDS011;4094;49.948;11.574;2022-08-05T11:39:53;3.47;;;0.90;;
8102;SDS011;4094;49.948;11.574;2022-08-05T11:42:30;1.50;;;0.73;;
8102;SDS011;4094;49.948;11.574;2022-08-05T11:45:06;0.87;;;0.80;;
8102;SDS011;4094;49.948;11.574;2022-08-05T11:47:54;1.60;;;0.97;;
8102;SDS011;4094;49.948;11.574;2022-08-05T11:50:24;1.87;;;1.00;;
8102;SDS011;4094;49.948;11.574;2022-08-05T11:52:54;0.73;;;0.67;;
8102;SDS011;4094;49.948;11.574;2022-08-05T11:55:24;0.70;;;0.70;;
8102;SDS011;4094;49.948;11.574;2022-08-05T11:58:03;2.23;;;0.87;;
8102;SDS011;4094;49.948;11.574;2022-08-05T12:00:38;1.63;;;1.17;;
8102;SDS011;4094;49.948;11.574;2022-08-05T12:03:18;1.50;;;0.70;;
8102;SDS011;4094;49.948;11.574;2022-08-05T12:06:01;1.37;;;0.80;;
8102;SDS011;4094;49.948;11.574;2022-08-05T12:08:33;1.30;;;1.20;;
8102;SDS011;4094;49.948;11.574;2022-08-05T12:11:18;1.27;;;1.00;;
8102;SDS011;4094;49.948;11.574;2022-08-05T12:13:54;1.07;;;0.80;;
8102;SDS011;4094;49.948;11.574;2022-08-05T12:16:32;1.00;;;0.80;;
8102;SDS011;4094;49.948;11.574;2022-08-05T12:19:06;1.10;;;0.80;;
8102;SDS011;4094;49.948;11.574;2022-08-05T12:21:57;1.37;;;0.90;;
8102;SDS011;4094;49.948;11.574;2022-08-05T12:24:27;1.50;;;0.80;;
8102;SDS011;4094;49.948;11.574;2022-08-05T12:26:57;1.80;;;0.83;;
8102;SDS011;4094;49.948;11.574;2022-08-05T12:29:57;2.60;;;0.80;;
8102;SDS011;4094;49.948;11.574;2022-08-05T12:32:30;3.03;;;0.80;;
8102;SDS011;4094;49.948;11.574;2022-08-05T12:35:02;0.87;;;0.70;;
8102;SDS011;4094;49.948;11.574;2022-08-05T12:37:33;1.63;;;0.80;;
8102;SDS011;4094;49.948;11.574;2022-08-05T12:40:06;1.03;;;0.80;;
8102;SDS011;4094;49.948;11.574;2022-08-05T12:42:52;1.57;;;0.97;;
8102;SDS011;4094;49.948;11.574;2022-08-05T12:45:23;1.67;;;1.03;;
8102;SDS011;4094;49.948;11.574;2022-08-05T12:48:13;2.57;;;0.77;;
8102;SDS011;4094;49.948;11.574;2022-08-05T12:51:12;1.80;;;0.87;;
8102;SDS011;4094;49.948;11.574;2022-08-05T12:54:03;1.60;;;0.73;;
8102;SDS011;4094;49.948;11.574;2022-08-05T12:56:45;1.80;;;0.90;;
8102;SDS011;4094;49.948;11.574;2022-08-05T12:59:18;0.80;;;0.70;;
8102;SDS011;4094;49.948;11.574;2022-08-05T13:02:09;1.63;;;0.73;;
8102;SDS011;4094;49.948;11.574;2022-08-05T13:04:40;2.17;;;0.90;;
8102;SDS011;4094;49.948;11.574;2022-08-05T13:07:22;1.23;;;0.90;;
8102;SDS011;4094;49.948;11.574;2022-08-05T13:10:13;1.10;;;0.90;;
8102;SDS011;4094;49.948;11.574;2022-08-05T13:12:46;2.37;;;0.90;;
8102;SDS011;4094;49.948;11.574;2022-08-05T13:15:28;4.20;;;1.40;;
8102;SDS011;4094;49.948;11.574;2022-08-05T13:18:15;1.47;;;0.93;;
8102;SDS011;4094;49.948;11.574;2022-08-05T13:20:46;2.07;;;1.10;;
8102;SDS011;4094;49.948;11.574;2022-08-05T13:23:18;1.43;;;0.90;;
8102;SDS011;4094;49.948;11.574;2022-08-05T13:25:49;2.30;;;0.80;;
8102;SDS011;4094;49.948;11.574;2022-08-05T13:28:27;2.30;;;1.13;;
8102;SDS011;4094;49.948;11.574;2022-08-05T13:30:59;4.70;;;1.30;;
8102;SDS011;4094;49.948;11.574;2022-08-05T13:33:40;1.77;;;0.90;;
8102;SDS011;4094;49.948;11.574;2022-08-05T13:36:30;2.27;;;0.80;;
8102;SDS011;4094;49.948;11.574;2022-08-05T13:39:01;5.70;;;2.17;;
8102;SDS011;4094;49.948;11.574;2022-08-05T13:41:51;2.13;;;0.90;;
8102;SDS011;4094;49.948;11.574;2022-08-05T13:44:22;1.97;;;1.03;;
8102;SDS011;4094;49.948;11.574;2022-08-05T13:46:50;1.53;;;1.10;;
8102;SDS011;4094;49.948;11.574;2022-08-05T13:49:34;2.67;;;1.00;;
8102;SDS011;4094;49.948;11.574;2022-08-05T13:52:12;3.77;;;1.23;;
8102;SDS011;4094;49.948;11.574;2022-08-05T13:54:43;1.13;;;0.87;;
8102;SDS011;4094;49.948;11.574;2022-08-05T13:57:20;1.40;;;1.00;;
8102;SDS011;4094;49.948;11.574;2022-08-05T13:59:50;5.00;;;1.40;;
8102;SDS011;4094;49.948;11.574;2022-08-05T14:02:35;4.27;;;1.83;;
8102;SDS011;4094;49.948;11.574;2022-08-05T14:05:04;13.97;;;3.83;;
8102;SDS011;4094;49.948;11.574;2022-08-05T14:07:56;2.50;;;1.03;;
8102;SDS011;4094;49.948;11.574;2022-08-05T14:10:46;3.20;;;1.30;;
8102;SDS011;4094;49.948;11.574;2022-08-05T14:13:15;1.87;;;0.90;;
8102;SDS011;4094;49.948;11.574;2022-08-05T14:15:49;4.57;;;1.07;;
8102;SDS011;4094;49.948;11.574;2022-08-05T14:18:37;3.00;;;0.80;;
8102;SDS011;4094;49.948;11.574;2022-08-05T14:21:07;1.97;;;1.10;;
8102;SDS011;4094;49.948;11.574;2022-08-05T14:23:56;1.20;;;1.00;;
8102;SDS011;4094;49.948;11.574;2022-08-05T14:26:28;1.80;;;1.13;;
8102;SDS011;4094;49.948;11.574;2022-08-05T14:29:07;2.20;;;0.90;;
8102;SDS011;4094;49.948;11.574;2022-08-05T14:31:43;1.73;;;0.90;;
8102;SDS011;4094;49.948;11.574;2022-08-05T14:34:33;1.30;;;1.20;;
8102;SDS011;4094;49.948;11.574;2022-08-05T14:37:03;2.87;;;1.20;;
8102;SDS011;4094;49.948;11.574;2022-08-05T14:39:33;3.43;;;1.10;;
8102;SDS011;4094;49.948;11.574;2022-08-05T14:42:24;2.37;;;1.30;;
8102;SDS011;4094;49.948;11.574;2022-08-05T14:44:55;1.30;;;0.90;;
8102;SDS011;4094;49.948;11.574;2022-08-05T14:47:25;1.20;;;1.00;;
8102;SDS011;4094;49.948;11.574;2022-08-05T14:50:15;4.93;;;1.70;;
8102;SDS011;4094;49.948;11.574;2022-08-05T14:52:45;2.90;;;1.30;;
8102;SDS011;4094;49.948;11.574;2022-08-05T14:55:25;2.53;;;0.90;;
8102;SDS011;4094;49.948;11.574;2022-08-05T14:58:08;1.67;;;0.80;;
8102;SDS011;4094;49.948;11.574;2022-08-05T15:00:40;3.90;;;1.23;;
8102;SDS011;4094;49.948;11.574;2022-08-05T15:03:27;3.13;;;1.30;;
8102;SDS011;4094;49.948;11.574;2022-08-05T15:06:05;1.70;;;1.10;;
8102;SDS011;4094;49.948;11.574;2022-08-05T15:08:42;1.47;;;1.00;;
8102;SDS011;4094;49.948;11.574;2022-08-05T15:11:30;7.57;;;2.60;;
8102;SDS011;4094;49.948;11.574;2022-08-05T15:14:20;3.03;;;1.07;;
8102;SDS011;4094;49.948;11.574;2022-08-05T15:17:09;3.30;;;1.30;;
8102;SDS011;4094;49.948;11.574;2022-08-05T15:19:59;1.63;;;1.00;;
8102;SDS011;4094;49.948;11.574;2022-08-05T15:22:28;3.23;;;1.23;;
8102;SDS011;4094;49.948;11.574;2022-08-05T15:24:57;1.40;;;0.90;;
8102;SDS011;4094;49.948;11.574;2022-08-05T15:27:37;2.03;;;1.10;;
8102;SDS011;4094;49.948;11.574;2022-08-05T15:30:11;1.80;;;1.20;;
8102;SDS011;4094;49.948;11.574;2022-08-05T15:32:42;2.53;;;1.00;;
8102;SDS011;4094;49.948;11.574;2022-08-05T15:35:12;3.53;;;1.40;;
8102;SDS011;4094;49.948;11.574;2022-08-05T15:37:42;1.30;;;0.90;;
8102;SDS011;4094;49.948;11.574;2022-08-05T15:40:31;2.30;;;1.20;;
8102;SDS011;4094;49.948;11.574;2022-08-05T15:43:20;0.90;;;0.70;;
8102;SDS011;4094;49.948;11.574;2022-08-05T15:45:51;0.73;;;0.70;;
8102;SDS011;4094;49.948;11.574;2022-08-05T15:48:27;2.50;;;1.37;;
8102;SDS011;4094;49.948;11.574;2022-08-05T15:50:56;3.30;;;0.93;;
8102;SDS011;4094;49.948;11.574;2022-08-05T15:53:32;9.53;;;2.90;;
8102;SDS011;4094;49.948;11.574;2022-08-05T15:56:16;2.10;;;1.13;;
8102;SDS011;4094;49.948;11.574;2022-08-05T15:58:46;1.63;;;1.00;;
8102;SDS011;4094;49.948;11.574;2022-08-05T16:01:18;2.07;;;1.17;;
8102;SDS011;4094;49.948;11.574;2022-08-05T16:03:56;2.53;;;0.90;;
8102;SDS011;4094;49.948;11.574;2022-08-05T16:06:25;3.37;;;1.30;;
8102;SDS011;4094;49.948;11.574;2022-08-05T16:08:54;4.37;;;1.10;;
8102;SDS011;4094;49.948;11.574;2022-08-05T16:11:24;1.10;;;1.00;;
8102;SDS011;4094;49.948;11.574;2022-08-05T16:14:10;1.40;;;1.17;;
8102;SDS011;4094;49.948;11.574;2022-08-05T16:16:45;2.63;;;1.20;;
8102;SDS011;4094;49.948;11.574;2022-08-05T16:19:14;1.33;;;1.13;;
8102;SDS011;4094;49.948;11.574;2022-08-05T16:21:52;3.80;;;1.63;;